Time;durP1;ratioP1;P1;durP2;ratioP2;P2;SDS_P1;SDS_P2;PMS_P1;PMS_P2;Temp;Humidity;BMP_temperature;BMP_pressure;BME280_temperature;BME280_humidity;BME280_pressure;Samples;Min_cycle;Max_cycle;Signal;HPM_P1;HPM_P2
2021/11/11 00:00:55;;;;;;;17.10;7.20;;;;;;;6.67;62.97;99966.52;103057;1318;111230;-77
2021/11/11 00:03:24;;;;;;;17.60;8.10;;;;;;;6.68;62.68;99961.52;102907;1319;97797;-75
2021/11/11 00:05:54;;;;;;;17.10;7.90;;;;;;;6.69;62.87;99952.86;102652;1318;107769;-75
2021/11/11 00:08:22;;;;;;;18.20;8.00;;;;;;;6.68;63.02;99952.53;102821;1320;96530;-75
2021/11/11 00:10:50;;;;;;;19.70;8.30;;;;;;;6.69;62.89;99950.41;102609;1325;99149;-75
2021/11/11 00:13:21;;;;;;;17.20;7.40;;;;;;;6.69;62.94;99950.58;102646;1322;111058;-76
2021/11/11 00:15:51;;;;;;;18.80;7.80;;;;;;;6.69;62.98;99948.48;102814;1320;98002;-75
2021/11/11 00:18:26;;;;;;;18.80;7.60;;;;;;;6.68;62.73;99944.27;103127;1319;107854;-78
2021/11/11 00:20:54;;;;;;;19.60;8.10;;;;;;;6.69;62.88;99945.67;102987;1319;97983;-78
2021/11/11 00:23:22;;;;;;;19.20;7.80;;;;;;;6.67;62.88;99945.20;102954;1319;95374;-76
2021/11/11 00:25:53;;;;;;;17.20;7.10;;;;;;;6.66;62.95;99941.52;103010;1319;109673;-75
2021/11/11 00:28:21;;;;;;;17.00;7.40;;;;;;;6.66;62.76;99937.98;103070;1319;98520;-75
2021/11/11 00:30:54;;;;;;;19.00;8.00;;;;;;;6.68;62.89;99937.23;102978;1324;106828;-76
2021/11/11 00:33:21;;;;;;;20.40;7.90;;;;;;;6.68;62.80;99934.74;102704;1321;97881;-76
2021/11/11 00:35:50;;;;;;;17.80;7.50;;;;;;;6.68;63.06;99939.33;102980;1323;97919;-80
2021/11/11 00:38:27;;;;;;;18.40;7.70;;;;;;;6.69;62.55;99943.00;102982;1319;111594;-79
2021/11/11 00:40:54;;;;;;;17.30;7.50;;;;;;;6.69;62.71;99943.89;102981;1319;97977;-78
2021/11/11 00:43:22;;;;;;;18.00;7.20;;;;;;;6.69;62.75;99946.33;103015;1319;108448;-77
2021/11/11 00:45:50;;;;;;;17.50;7.20;;;;;;;6.69;62.67;99941.94;103071;1319;97878;-76
2021/11/11 00:48:22;;;;;;;13.50;5.50;;;;;;;6.68;62.75;99944.95;103022;1319;98014;-76
2021/11/11 00:50:50;;;;;;;18.00;7.00;;;;;;;6.69;62.69;99944.23;102982;1323;111508;-74
2021/11/11 00:53:23;;;;;;;16.80;7.30;;;;;;;6.69;63.06;99945.83;102892;1325;97895;-77
2021/11/11 00:55:55;;;;;;;19.80;8.00;;;;;;;6.68;62.78;99950.60;103129;1323;107838;-77
2021/11/11 00:58:23;;;;;;;17.20;7.20;;;;;;;6.68;62.85;99956.61;103119;1319;97981;-76
2021/11/11 01:00:51;;;;;;;17.20;7.50;;;;;;;6.67;62.90;99957.69;103039;1322;95262;-76
2021/11/11 01:03:25;;;;;;;17.70;6.90;;;;;;;6.68;62.86;99957.15;102932;1318;112691;-77
2021/11/11 01:05:57;;;;;;;16.00;7.00;;;;;;;6.67;62.96;99954.38;102923;1320;97993;-76
2021/11/11 01:08:31;;;;;;;17.70;7.60;;;;;;;6.66;62.94;99954.05;102910;1322;107839;-76
2021/11/11 01:11:05;;;;;;;18.70;7.00;;;;;;;6.67;62.94;99964.23;102757;1323;95303;-76
2021/11/11 01:13:38;;;;;;;16.30;6.90;;;;;;;6.67;62.97;99963.86;102986;1325;97891;-75
2021/11/11 01:16:06;;;;;;;16.80;7.10;;;;;;;6.68;62.97;99965.59;102902;1323;111529;-76
2021/11/11 01:18:33;;;;;;;18.70;6.80;;;;;;;6.69;62.88;99966.98;102976;1319;97953;-75
2021/11/11 01:21:03;;;;;;;18.60;8.00;;;;;;;6.68;62.90;99964.70;102452;1322;107869;-76
2021/11/11 01:23:36;;;;;;;17.40;7.60;;;;;;;6.69;62.94;99963.08;102992;1318;97991;-75
2021/11/11 01:26:09;;;;;;;19.00;8.70;;;;;;;6.69;62.87;99960.60;103028;1324;98040;-76
2021/11/11 01:28:42;;;;;;;18.50;8.00;;;;;;;6.69;62.91;99956.20;102829;1325;111565;-76
2021/11/11 01:31:09;;;;;;;18.80;7.60;;;;;;;6.68;62.67;99957.65;102985;1325;95227;-74
2021/11/11 01:33:37;;;;;;;18.00;8.00;;;;;;;6.68;63.05;99954.30;102923;1322;107919;-76
2021/11/11 01:36:15;;;;;;;16.90;7.60;;;;;;;6.68;63.07;99948.32;103055;1325;95319;-75
2021/11/11 01:38:47;;;;;;;18.00;8.20;;;;;;;6.68;63.06;99945.30;102975;1319;97936;-75
2021/11/11 01:41:15;;;;;;;19.10;8.20;;;;;;;6.69;62.98;99949.52;102844;1325;112493;-75
2021/11/11 01:43:43;;;;;;;20.90;8.10;;;;;;;6.69;62.93;99949.15;103050;1318;98505;-76
2021/11/11 01:46:16;;;;;;;18.80;8.20;;;;;;;6.69;62.97;99944.55;102972;1318;107396;-75
2021/11/11 01:48:44;;;;;;;19.30;7.60;;;;;;;6.70;63.01;99947.37;103010;1325;98331;-77
2021/11/11 01:51:18;;;;;;;19.30;8.10;;;;;;;6.70;63.20;99949.31;103036;1318;95268;-76
2021/11/11 01:53:46;;;;;;;20.30;8.40;;;;;;;6.69;62.67;99957.09;102720;1321;111396;-75
2021/11/11 01:56:24;;;;;;;21.30;8.90;;;;;;;6.68;63.10;99964.70;102830;1323;99034;-79
2021/11/11 01:58:56;;;;;;;19.40;8.60;;;;;;;6.68;62.73;99963.32;102987;1326;107846;-76
2021/11/11 02:01:24;;;;;;;20.90;8.60;;;;;;;6.67;63.06;99958.06;102973;1325;97916;-76
2021/11/11 02:04:02;;;;;;;22.20;9.10;;;;;;;6.67;62.78;99946.27;102939;1325;95297;-76
2021/11/11 02:06:35;;;;;;;19.20;8.90;;;;;;;6.64;63.08;99943.89;103030;1325;111544;-76
2021/11/11 02:09:08;;;;;;;22.30;9.20;;;;;;;6.62;63.00;99947.90;103084;1323;98030;-75
2021/11/11 02:11:36;;;;;;;20.30;9.30;;;;;;;6.59;62.91;99943.26;102991;1325;107611;-74
2021/11/11 02:14:04;;;;;;;19.80;8.60;;;;;;;6.58;63.05;99939.95;103033;1319;98008;-75
2021/11/11 02:16:40;;;;;;;20.90;8.80;;;;;;;6.55;62.95;99934.94;102969;1325;97916;-75
2021/11/11 02:19:13;;;;;;;21.20;9.50;;;;;;;6.52;62.78;99937.18;102779;1326;111459;-75
2021/11/11 02:21:43;;;;;;;22.60;10.70;;;;;;;6.50;62.94;99934.08;102963;1320;97877;-74
2021/11/11 02:24:15;;;;;;;21.40;9.30;;;;;;;6.47;62.83;99931.56;103004;1326;107844;-77
2021/11/11 02:26:43;;;;;;;20.80;8.80;;;;;;;6.45;62.86;99930.27;102976;1325;97959;-75
2021/11/11 02:29:16;;;;;;;20.20;9.20;;;;;;;6.44;62.86;99929.80;103022;1325;97974;-75
2021/11/11 02:31:49;;;;;;;19.70;9.30;;;;;;;6.42;62.85;99934.45;103112;1323;111358;-76
2021/11/11 02:34:25;;;;;;;21.40;9.90;;;;;;;6.39;63.11;99930.83;103124;1319;95255;-77
2021/11/11 02:37:04;;;;;;;22.80;9.40;;;;;;;6.38;63.12;99926.65;102940;1325;107751;-78
2021/11/11 02:39:39;;;;;;;21.00;9.10;;;;;;;6.37;63.24;99924.08;102886;1325;97921;-76
2021/11/11 02:42:08;;;;;;;22.30;9.70;;;;;;;6.36;62.96;99928.16;102795;1319;219826;-78
2021/11/11 02:44:42;;;;;;;20.60;9.40;;;;;;;6.34;63.11;99931.21;102979;1324;111492;-77
2021/11/11 02:47:15;;;;;;;22.00;8.90;;;;;;;6.33;62.94;99931.64;103041;1325;95199;-75
2021/11/11 02:49:43;;;;;;;19.90;9.10;;;;;;;6.31;63.12;99932.24;102990;1319;107909;-77
2021/11/11 02:52:10;;;;;;;20.50;9.30;;;;;;;6.28;63.13;99926.55;103070;1322;98527;-78
2021/11/11 02:54:44;;;;;;;19.10;9.10;;;;;;;6.25;63.04;99924.19;103138;1325;95403;-77
2021/11/11 02:57:37;;;;;;;21.40;10.00;;;;;;;6.24;63.11;99924.25;103121;1323;109793;-78
2021/11/11 03:00:10;;;;;;;22.30;10.40;;;;;;;6.21;63.10;99922.58;103085;1322;97747;-78
2021/11/11 03:02:46;;;;;;;21.80;10.30;;;;;;;6.21;63.14;99930.89;103074;1322;107825;-77
2021/11/11 03:05:22;;;;;;;22.20;10.90;;;;;;;6.20;63.18;99931.63;103147;1322;97959;-75
2021/11/11 03:07:55;;;;;;;22.70;9.90;;;;;;;6.18;63.18;99928.52;103038;1325;96574;-77
2021/11/11 03:10:29;;;;;;;20.80;9.40;;;;;;;6.17;63.24;99932.63;102974;1322;111508;-78
2021/11/11 03:13:02;;;;;;;22.50;10.00;;;;;;;6.16;63.14;99929.14;102963;1320;97976;-76
2021/11/11 03:15:35;;;;;;;22.80;11.30;;;;;;;6.14;63.09;99927.81;102874;1326;106687;-76
2021/11/11 03:18:05;;;;;;;17.60;8.70;;;;;;;6.11;63.16;99927.61;103154;1320;97947;-75
2021/11/11 03:20:33;;;;;;;22.30;9.70;;;;;;;6.09;63.42;99927.50;102999;1323;95209;-75
2021/11/11 03:23:08;;;;;;;23.00;11.30;;;;;;;6.08;63.34;99933.34;103077;1325;111516;-76
2021/11/11 03:25:40;;;;;;;21.10;10.20;;;;;;;6.08;63.37;99934.57;102889;1324;97892;-77
2021/11/11 03:28:13;;;;;;;23.90;11.40;;;;;;;6.07;63.18;99933.55;103093;1319;107833;-76
2021/11/11 03:30:41;;;;;;;23.70;10.70;;;;;;;6.07;63.46;99929.52;103094;1322;97889;-75
2021/11/11 03:33:09;;;;;;;23.20;10.10;;;;;;;6.06;63.52;99926.73;103142;1323;97895;-76
2021/11/11 03:35:37;;;;;;;23.60;10.80;;;;;;;6.05;63.56;99925.19;103032;1320;111484;-75
2021/11/11 03:38:10;;;;;;;23.70;11.30;;;;;;;6.05;63.46;99918.15;102933;1322;95200;-75
2021/11/11 03:40:46;;;;;;;22.80;11.20;;;;;;;6.04;63.49;99916.95;102903;1325;107806;-75
2021/11/11 03:43:19;;;;;;;23.70;10.60;;;;;;;6.03;63.64;99915.75;102900;1324;97997;-76
2021/11/11 03:45:47;;;;;;;26.40;11.80;;;;;;;6.03;63.67;99913.84;102937;1324;97909;-78
2021/11/11 03:48:14;;;;;;;22.40;10.70;;;;;;;6.02;63.54;99907.17;102820;1325;111681;-75
2021/11/11 03:50:42;;;;;;;24.50;11.60;;;;;;;6.01;63.55;99909.33;103048;1319;97905;-73
2021/11/11 03:53:14;;;;;;;21.80;10.50;;;;;;;6.00;63.55;99909.36;103130;1323;107804;-73
2021/11/11 03:55:42;;;;;;;24.10;12.20;;;;;;;5.99;63.56;99906.20;103160;1320;97937;-75
2021/11/11 03:58:15;;;;;;;24.00;11.20;;;;;;;5.97;63.56;99911.73;103043;1323;97969;-73
2021/11/11 04:00:47;;;;;;;24.80;11.50;;;;;;;5.96;63.66;99911.92;102910;1325;111497;-74
2021/11/11 04:03:14;;;;;;;21.60;10.70;;;;;;;5.95;63.67;99911.27;103017;1319;95269;-75
2021/11/11 04:05:42;;;;;;;23.20;10.60;;;;;;;5.95;63.78;99903.70;102875;1320;107135;-74
2021/11/11 04:08:10;;;;;;;22.70;10.80;;;;;;;5.96;63.87;99902.10;103097;1320;97948;-74
2021/11/11 04:10:38;;;;;;;24.90;11.50;;;;;;;5.95;63.78;99894.02;103165;1322;97911;-73
2021/11/11 04:13:10;;;;;;;24.40;11.00;;;;;;;5.95;63.66;99894.00;103214;1319;111138;-73
2021/11/11 04:15:38;;;;;;;24.00;11.10;;;;;;;5.95;63.84;99891.04;102923;1320;97928;-74
2021/11/11 04:18:06;;;;;;;22.30;10.80;;;;;;;5.94;63.84;99887.91;102827;1327;106835;-74
2021/11/11 04:20:39;;;;;;;25.10;10.70;;;;;;;5.95;63.91;99888.92;103148;1322;97965;-75
2021/11/11 04:23:11;;;;;;;22.90;10.30;;;;;;;5.94;63.85;99888.41;103175;1325;97973;-75
2021/11/11 04:25:49;;;;;;;22.30;10.20;;;;;;;5.92;63.63;99883.59;103094;1319;111566;-75
2021/11/11 04:31:20;;;;;;;22.20;10.40;;;;;;;5.86;64.02;99876.42;102580;1325;107913;-75
2021/11/11 04:33:51;;;;;;;24.20;10.80;;;;;;;5.86;63.87;99874.34;103112;1324;97976;-74
2021/11/11 04:52:31;;;;;;;22.30;10.50;;;;;;;5.79;64.00;99875.45;102923;1325;111547;-74
2021/11/11 05:03:33;;;;;;;23.80;9.90;;;;;;;5.78;64.00;99870.44;102793;1324;96710;-78
2021/11/11 05:06:04;;;;;;;24.30;11.00;;;;;;;5.77;64.14;99869.75;102829;1325;111080;-76
2021/11/11 05:08:32;;;;;;;23.90;11.30;;;;;;;5.76;64.20;99876.65;102990;1319;97910;-77
2021/11/11 05:11:02;;;;;;;22.00;9.60;;;;;;;5.74;64.01;99879.73;102935;1319;107912;-75
2021/11/11 05:13:33;;;;;;;23.20;10.50;;;;;;;5.72;64.09;99873.64;102757;1320;97939;-75
2021/11/11 05:16:01;;;;;;;22.90;10.20;;;;;;;5.71;64.14;99869.45;102953;1319;95216;-75
2021/11/11 05:18:31;;;;;;;21.20;9.70;;;;;;;5.70;64.11;99864.58;103002;1320;111509;-75
2021/11/11 05:21:05;;;;;;;22.80;10.60;;;;;;;5.69;64.09;99863.91;103020;1324;98615;-75
2021/11/11 05:23:32;;;;;;;23.30;10.70;;;;;;;5.68;64.19;99861.30;102998;1318;108020;-74
2021/11/11 05:26:00;;;;;;;22.60;10.50;;;;;;;5.68;64.04;99860.29;103147;1325;95300;-75
2021/11/11 05:28:28;;;;;;;23.50;11.10;;;;;;;5.65;64.06;99860.54;102977;1325;97891;-74
2021/11/11 05:30:58;;;;;;;24.00;11.40;;;;;;;5.64;64.14;99853.55;102865;1322;109660;-74
2021/11/11 05:33:26;;;;;;;22.60;10.60;;;;;;;5.64;64.23;99851.61;102835;1323;97940;-76
2021/11/11 05:35:55;;;;;;;23.80;10.90;;;;;;;5.64;64.18;99845.63;102959;1320;107660;-75
2021/11/11 05:38:23;;;;;;;22.50;10.50;;;;;;;5.64;64.26;99846.86;102943;1320;98454;-76
2021/11/11 05:40:50;;;;;;;21.40;10.30;;;;;;;5.64;64.19;99842.98;102976;1320;97871;-75
2021/11/11 05:43:24;;;;;;;23.50;10.40;;;;;;;5.64;64.16;99848.97;102838;1318;111350;-74
2021/11/11 05:45:51;;;;;;;23.80;10.60;;;;;;;5.64;64.15;99850.89;102911;1320;98308;-73
2021/11/11 05:48:19;;;;;;;25.20;11.70;;;;;;;5.64;64.18;99854.77;102889;1325;107868;-75
2021/11/11 05:50:50;;;;;;;24.00;11.10;;;;;;;5.65;64.32;99853.34;102724;1320;97173;-72
2021/11/11 05:53:21;;;;;;;22.20;10.10;;;;;;;5.67;64.22;99857.31;102915;1319;96522;-76
2021/11/11 05:55:49;;;;;;;23.30;10.00;;;;;;;5.66;64.32;99857.52;102884;1322;111493;-76
2021/11/11 05:58:19;;;;;;;23.20;10.50;;;;;;;5.67;64.36;99857.84;102839;1319;97893;-76
2021/11/11 06:00:47;;;;;;;21.80;10.10;;;;;;;5.66;64.37;99860.33;102838;1326;107784;-77
2021/11/11 06:03:18;;;;;;;23.00;10.80;;;;;;;5.66;64.46;99857.33;102910;1319;97974;-76
2021/11/11 06:05:48;;;;;;;22.90;10.10;;;;;;;5.67;64.44;99859.95;102838;1319;99019;-78
2021/11/11 06:08:16;;;;;;;20.80;10.10;;;;;;;5.68;64.51;99856.05;102878;1324;111222;-74
2021/11/11 06:10:44;;;;;;;22.70;11.10;;;;;;;5.68;64.51;99854.80;102854;1320;98368;-76
2021/11/11 06:13:12;;;;;;;22.40;10.50;;;;;;;5.69;64.54;99852.31;102674;1325;106250;-77
2021/11/11 06:15:39;;;;;;;21.90;10.80;;;;;;;5.69;64.70;99849.31;102837;1325;97981;-78
2021/11/11 06:18:10;;;;;;;24.90;11.60;;;;;;;5.69;64.87;99852.66;102955;1320;97997;-78
2021/11/11 06:20:45;;;;;;;24.70;11.40;;;;;;;5.70;64.64;99851.04;102905;1319;111592;-77
2021/11/11 06:23:14;;;;;;;22.30;10.90;;;;;;;5.70;64.84;99852.80;102864;1322;95986;-74
2021/11/11 06:25:43;;;;;;;23.10;10.50;;;;;;;5.69;64.78;99853.70;102870;1318;107863;-77
2021/11/11 06:28:12;;;;;;;24.00;11.10;;;;;;;5.70;64.77;99852.27;102847;1319;98005;-78
2021/11/11 06:30:40;;;;;;;21.20;10.70;;;;;;;5.72;64.80;99858.32;102858;1319;97908;-77
2021/11/11 06:33:08;;;;;;;23.80;12.00;;;;;;;5.74;64.95;99858.43;102582;1322;110081;-77
2021/11/11 06:35:36;;;;;;;21.10;10.50;;;;;;;5.76;64.74;99865.20;102835;1318;97565;-78
2021/11/11 06:38:07;;;;;;;22.80;10.90;;;;;;;5.76;64.87;99866.09;102690;1318;107813;-76
2021/11/11 06:40:37;;;;;;;22.30;10.40;;;;;;;5.76;64.68;99865.21;102687;1319;98050;-77
2021/11/11 06:43:07;;;;;;;22.70;11.20;;;;;;;5.76;64.96;99864.15;102845;1318;97996;-77
2021/11/11 06:45:43;;;;;;;23.00;11.00;;;;;;;5.78;64.89;99870.05;102796;1322;112173;-76
2021/11/11 06:48:15;;;;;;;22.30;10.50;;;;;;;5.82;65.00;99873.08;102769;1318;98038;-74
2021/11/11 06:50:45;;;;;;;23.20;10.80;;;;;;;5.86;65.02;99875.76;102789;1318;107876;-76
2021/11/11 06:53:16;;;;;;;23.90;11.00;;;;;;;5.90;65.10;99883.66;102778;1322;97993;-76
2021/11/11 06:55:48;;;;;;;22.40;10.30;;;;;;;5.94;65.05;99881.92;102893;1319;97823;-77
2021/11/11 06:58:22;;;;;;;24.90;11.20;;;;;;;5.99;65.12;99873.83;102983;1323;111572;-76
2021/11/11 07:00:53;;;;;;;20.90;9.50;;;;;;;6.05;65.23;99874.48;102902;1321;97906;-77
2021/11/11 07:03:23;;;;;;;19.50;9.20;;;;;;;6.11;65.23;99871.77;102918;1319;107898;-78
2021/11/11 07:05:51;;;;;;;24.10;10.70;;;;;;;6.17;65.22;99870.10;102903;1319;97889;-76
2021/11/11 07:08:22;;;;;;;21.70;9.80;;;;;;;6.23;65.46;99866.52;102882;1319;98317;-75
2021/11/11 07:10:54;;;;;;;20.40;9.60;;;;;;;6.29;65.28;99863.29;102916;1320;111520;-76
2021/11/11 07:13:23;;;;;;;23.00;10.60;;;;;;;6.35;65.62;99862.11;102922;1323;98652;-77
2021/11/11 07:15:51;;;;;;;20.80;9.10;;;;;;;6.42;65.61;99860.27;102864;1325;107880;-77
2021/11/11 07:18:22;;;;;;;22.00;9.60;;;;;;;6.48;65.42;99861.42;102874;1325;97891;-78
2021/11/11 07:20:51;;;;;;;22.80;10.20;;;;;;;6.54;65.60;99859.73;102910;1319;95893;-77
2021/11/11 07:23:23;;;;;;;22.00;9.70;;;;;;;6.61;65.66;99857.51;102861;1322;112483;-77
2021/11/11 07:25:54;;;;;;;21.10;9.70;;;;;;;6.69;65.51;99855.59;102917;1319;96474;-76
2021/11/11 07:28:24;;;;;;;22.10;11.20;;;;;;;6.76;65.68;99857.39;102938;1322;108898;-76
2021/11/11 07:30:52;;;;;;;21.40;9.10;;;;;;;6.82;65.78;99853.05;103010;1319;97998;-76
2021/11/11 07:33:22;;;;;;;21.10;9.40;;;;;;;6.90;65.54;99852.36;102914;1318;97935;-77
2021/11/11 07:35:50;;;;;;;21.50;10.00;;;;;;;6.99;65.49;99849.67;102822;1325;111499;-77
2021/11/11 07:38:22;;;;;;;20.30;9.50;;;;;;;7.08;65.55;99848.19;102970;1320;97778;-77
2021/11/11 07:40:50;;;;;;;20.60;9.90;;;;;;;7.17;65.60;99844.64;102879;1319;107855;-76
2021/11/11 07:43:18;;;;;;;20.30;9.80;;;;;;;7.22;65.65;99841.04;102964;1321;97992;-76
2021/11/11 07:45:47;;;;;;;21.10;9.80;;;;;;;7.29;65.76;99836.84;103090;1319;95630;-77
2021/11/11 07:48:17;;;;;;;20.70;9.40;;;;;;;7.33;65.50;99829.60;102972;1319;111560;-76
2021/11/11 07:50:48;;;;;;;22.60;9.80;;;;;;;7.38;65.53;99828.48;102934;1320;97944;-75
2021/11/11 07:53:16;;;;;;;20.60;9.30;;;;;;;7.42;65.60;99825.48;102941;1319;107819;-76
2021/11/11 07:55:43;;;;;;;20.10;8.90;;;;;;;7.48;65.63;99827.66;102892;1319;98114;-76
2021/11/11 07:58:13;;;;;;;20.00;9.10;;;;;;;7.51;65.55;99819.92;102950;1318;97905;-76
2021/11/11 08:00:44;;;;;;;21.60;9.70;;;;;;;7.54;65.24;99829.85;103025;1319;113438;-77
2021/11/11 08:03:12;;;;;;;20.50;9.10;;;;;;;7.56;65.30;99823.56;102807;1319;98050;-76
2021/11/11 08:05:42;;;;;;;20.60;9.10;;;;;;;7.60;65.49;99824.25;102836;1318;108256;-73
2021/11/11 08:08:11;;;;;;;20.40;9.10;;;;;;;7.66;65.50;99820.61;102853;1319;97926;-77
2021/11/11 08:10:40;;;;;;;19.90;9.40;;;;;;;7.73;65.57;99820.29;102657;1316;98588;-74
2021/11/11 08:13:07;;;;;;;20.40;9.70;;;;;;;7.79;65.35;99810.83;102925;1323;111511;-72
2021/11/11 08:15:35;;;;;;;20.80;8.90;;;;;;;7.83;65.34;99804.92;103025;1318;97576;-74
2021/11/11 08:18:04;;;;;;;21.00;8.70;;;;;;;7.89;65.17;99804.84;102986;1318;107805;-73
2021/11/11 08:20:32;;;;;;;19.60;9.30;;;;;;;7.97;65.32;99806.92;102706;1323;95339;-75
2021/11/11 08:23:00;;;;;;;18.40;8.70;;;;;;;8.05;65.12;99808.64;102887;1318;98527;-74
2021/11/11 08:25:29;;;;;;;22.30;9.80;;;;;;;8.13;65.20;99808.04;102909;1318;111454;-74
2021/11/11 08:27:59;;;;;;;21.00;9.80;;;;;;;8.22;65.19;99811.65;102887;1318;97897;-73
2021/11/11 08:30:30;;;;;;;20.90;9.00;;;;;;;8.30;65.23;99810.03;102745;1319;107867;-74
2021/11/11 08:33:01;;;;;;;18.50;8.80;;;;;;;8.39;65.24;99805.84;102813;1318;96955;-72
2021/11/11 08:35:31;;;;;;;18.80;8.60;;;;;;;8.54;65.33;99799.63;102905;1316;97897;-76
2021/11/11 08:37:59;;;;;;;21.60;10.00;;;;;;;8.70;65.11;99801.46;102758;1321;111569;-73
2021/11/11 08:40:30;;;;;;;17.20;7.70;;;;;;;8.85;64.96;99788.79;102949;1319;97588;-75
2021/11/11 08:43:00;;;;;;;19.90;8.70;;;;;;;9.10;65.13;99786.59;102921;1322;107760;-75
2021/11/11 08:45:30;;;;;;;19.20;9.20;;;;;;;9.38;65.10;99783.42;102906;1319;96830;-72
2021/11/11 08:48:01;;;;;;;22.30;9.40;;;;;;;9.67;65.25;99776.70;102874;1318;97903;-74
2021/11/11 08:50:34;;;;;;;20.00;8.90;;;;;;;10.09;65.44;99775.83;102959;1318;111531;-77
2021/11/11 08:53:08;;;;;;;19.20;7.90;;;;;;;10.44;65.20;99784.93;102957;1319;97879;-75
2021/11/11 08:55:36;;;;;;;20.10;8.60;;;;;;;10.63;64.68;99789.48;102903;1319;107864;-77
2021/11/11 08:58:09;;;;;;;16.90;8.10;;;;;;;10.75;64.64;99796.24;102878;1321;98031;-78
2021/11/11 09:00:42;;;;;;;18.70;8.50;;;;;;;10.96;64.60;99798.81;102949;1319;98604;-80
2021/11/11 09:03:12;;;;;;;18.40;8.40;;;;;;;11.42;64.54;99795.95;102726;1319;111526;-76
2021/11/11 09:05:40;;;;;;;20.00;7.90;;;;;;;11.96;64.66;99789.05;102760;1318;96536;-75
2021/11/11 09:08:12;;;;;;;17.60;7.80;;;;;;;12.49;64.17;99782.45;102850;1319;107761;-76
2021/11/11 09:10:44;;;;;;;17.40;7.90;;;;;;;12.90;64.39;99779.64;102609;1321;98054;-77
2021/11/11 09:13:32;;;;;;;17.90;8.30;;;;;;;13.35;64.41;99780.67;102794;1319;97954;-78
2021/11/11 09:16:02;;;;;;;18.60;8.10;;;;;;;13.55;64.26;99783.17;102720;1320;111554;-76
2021/11/11 09:18:32;;;;;;;18.10;8.00;;;;;;;13.55;64.22;99778.89;102787;1318;97995;-75
2021/11/11 09:21:06;;;;;;;18.80;7.80;;;;;;;13.50;64.14;99768.55;102775;1318;107822;-76
2021/11/11 09:23:35;;;;;;;16.70;8.20;;;;;;;13.38;63.53;99769.05;102817;1318;95911;-77
2021/11/11 09:26:08;;;;;;;18.00;7.80;;;;;;;13.13;63.15;99764.43;102765;1320;99220;-77
2021/11/11 09:28:39;;;;;;;16.00;7.40;;;;;;;12.94;63.31;99767.42;102653;1321;110428;-76
2021/11/11 09:31:11;;;;;;;17.90;7.80;;;;;;;12.88;63.53;99765.55;102614;1319;97837;-80
2021/11/11 09:33:41;;;;;;;17.20;7.10;;;;;;;12.89;63.43;99764.59;102530;1318;107839;-77
2021/11/11 09:36:12;;;;;;;16.30;7.50;;;;;;;12.92;63.46;99765.21;102308;1321;98183;-77
2021/11/11 09:38:43;;;;;;;15.70;7.40;;;;;;;12.98;63.34;99766.95;102605;1318;96010;-75
2021/11/11 09:41:14;;;;;;;17.80;7.90;;;;;;;13.01;63.29;99765.67;102412;1321;111407;-74
2021/11/11 09:43:43;;;;;;;15.80;7.20;;;;;;;13.03;63.02;99769.08;102388;1319;95196;-75
2021/11/11 09:46:14;;;;;;;16.10;7.50;;;;;;;13.06;63.11;99773.27;102448;1320;106631;-74
2021/11/11 09:48:45;;;;;;;14.80;6.70;;;;;;;13.09;62.82;99771.13;102539;1318;97918;-73
2021/11/11 09:51:17;;;;;;;16.60;7.60;;;;;;;13.06;62.73;99760.31;102468;1317;97903;-73
2021/11/11 09:53:57;;;;;;;16.10;7.00;;;;;;;13.06;62.41;99761.58;102451;1318;110047;-75
2021/11/11 09:59:25;;;;;;;17.10;7.80;;;;;;;13.00;61.78;99754.69;102274;1319;107824;-74
2021/11/11 10:01:54;;;;;;;17.80;7.70;;;;;;;12.81;60.77;99753.01;102429;1318;97900;-73
2021/11/11 10:04:23;;;;;;;17.70;7.60;;;;;;;12.71;61.46;99745.94;102423;1319;98222;-73
2021/11/11 10:06:51;;;;;;;17.90;7.50;;;;;;;12.76;61.42;99742.13;102297;1320;111526;-72
2021/11/11 10:09:22;;;;;;;17.60;7.80;;;;;;;12.84;61.33;99736.60;102765;1318;98027;-75
2021/11/11 10:11:54;;;;;;;16.40;7.30;;;;;;;12.87;61.07;99730.33;102787;1323;107830;-75
2021/11/11 10:14:34;;;;;;;14.90;6.80;;;;;;;12.89;61.17;99728.28;102869;1319;96113;-76
2021/11/11 10:17:10;;;;;;;17.00;8.30;;;;;;;12.95;61.05;99724.45;102824;1319;96588;-77
2021/11/11 10:19:44;;;;;;;16.90;7.50;;;;;;;13.03;61.08;99721.05;102833;1319;111508;-76
2021/11/11 10:22:24;;;;;;;16.90;7.20;;;;;;;13.10;61.00;99722.65;103073;1315;98168;-77
2021/11/11 10:25:03;;;;;;;17.00;7.10;;;;;;;13.16;60.78;99718.32;102736;1319;108732;-75
2021/11/11 10:27:48;;;;;;;16.90;7.80;;;;;;;13.20;60.67;99713.92;102624;1318;98313;-76
2021/11/11 10:30:30;;;;;;;16.80;7.70;;;;;;;13.20;60.38;99711.09;102592;1319;98095;-75
2021/11/11 10:33:13;;;;;;;18.50;7.90;;;;;;;13.16;60.36;99718.15;102377;1320;112701;-74
2021/11/11 10:35:44;;;;;;;16.80;7.30;;;;;;;13.18;60.08;99712.94;102490;1319;97775;-76
2021/11/11 10:38:16;;;;;;;17.00;7.40;;;;;;;13.23;60.11;99717.95;102305;1321;107911;-73
2021/11/11 10:40:52;;;;;;;22.40;8.50;;;;;;;13.29;60.00;99710.10;102572;1319;96514;-73
2021/11/11 10:43:27;;;;;;;16.90;7.50;;;;;;;13.31;59.82;99718.30;102275;1318;475711;-74
2021/11/11 10:45:56;;;;;;;17.20;8.00;;;;;;;13.30;59.67;99720.29;102787;1323;111534;-72
2021/11/11 10:48:26;;;;;;;19.70;8.40;;;;;;;13.31;59.59;99722.95;102641;1319;95187;-72
2021/11/11 10:51:00;;;;;;;17.30;7.90;;;;;;;13.32;59.49;99720.73;102551;1318;108414;-72
2021/11/11 10:53:32;;;;;;;15.60;7.90;;;;;;;13.34;59.30;99716.28;102505;1318;97854;-72
2021/11/11 10:56:02;;;;;;;17.10;7.40;;;;;;;13.38;59.46;99714.34;102278;1319;97981;-72
2021/11/11 10:58:38;;;;;;;18.30;7.80;;;;;;;13.42;59.34;99712.35;102409;1321;111379;-73
2021/11/11 11:01:08;;;;;;;17.00;7.90;;;;;;;13.43;59.13;99708.17;102672;1318;96652;-72
2021/11/11 11:03:42;;;;;;;17.20;7.90;;;;;;;13.44;59.05;99702.25;102607;1316;109014;-73
2021/11/11 11:06:11;;;;;;;16.80;7.90;;;;;;;13.45;58.99;99694.83;102493;1322;98616;-74
2021/11/11 11:08:57;;;;;;;16.40;7.60;;;;;;;13.45;58.85;99691.77;102667;1318;95968;-77
2021/11/11 11:11:28;;;;;;;16.10;7.20;;;;;;;13.47;58.91;99688.97;102626;1319;112254;-74
2021/11/11 11:14:10;;;;;;;15.30;7.50;;;;;;;13.53;58.91;99691.60;102584;1321;97191;-71
2021/11/11 11:16:38;;;;;;;16.50;7.50;;;;;;;13.55;58.78;99699.06;102667;1319;107978;-72
2021/11/11 11:19:12;;;;;;;20.80;7.70;;;;;;;13.57;58.69;99697.33;102853;1322;97975;-74
2021/11/11 11:21:45;;;;;;;16.70;7.60;;;;;;;13.59;58.59;99688.97;102920;1319;97909;-74
2021/11/11 11:24:21;;;;;;;21.40;7.50;;;;;;;13.61;58.53;99683.64;102730;1319;111836;-72
2021/11/11 11:26:56;;;;;;;16.50;7.90;;;;;;;13.62;58.38;99681.13;102856;1320;98039;-73
2021/11/11 11:29:45;;;;;;;16.40;7.40;;;;;;;13.60;58.26;99674.33;102501;1319;109864;-75
2021/11/11 11:32:21;;;;;;;17.10;7.10;;;;;;;13.59;58.09;99674.90;102573;1322;98110;-73
2021/11/11 11:34:55;;;;;;;17.50;7.50;;;;;;;13.57;58.04;99673.80;102661;1318;98726;-73
2021/11/11 11:37:24;;;;;;;;;;;;;;;13.58;57.94;99670.40;102621;1319;111563;-75
2021/11/11 11:39:55;;;;;;;15.70;7.30;;;;;;;13.54;57.91;99662.77;102747;1319;98531;-76
2021/11/11 11:42:26;;;;;;;19.10;8.60;;;;;;;13.55;57.86;99661.13;102688;1318;107670;-75
2021/11/11 11:44:57;;;;;;;17.40;8.20;;;;;;;13.57;57.80;99657.58;102527;1321;97938;-77
2021/11/11 11:50:04;;;;;;;19.60;8.50;;;;;;;13.56;57.45;99672.26;102693;1319;111859;-80
2021/11/11 11:52:35;;;;;;;18.60;8.30;;;;;;;13.51;57.18;99668.53;102748;1318;97893;-76
2021/11/11 12:14:04;;;;;;;18.50;8.50;;;;;;;13.07;55.74;99657.35;102670;1318;97876;-75
2021/11/11 12:40:06;;;;;;;18.70;8.40;;;;;;;12.47;54.54;99652.38;102627;1319;97859;-73
2021/11/11 12:42:34;;;;;;;;;;;;;;;12.42;54.64;99649.17;102707;1318;98052;-75
2021/11/11 12:45:31;;;;;;;18.90;8.10;;;;;;;12.38;54.79;99646.62;102609;1318;111569;-75
2021/11/11 12:48:11;;;;;;;20.40;8.90;;;;;;;12.39;54.75;99644.45;102645;1318;97892;-78
2021/11/11 12:50:58;;;;;;;19.70;8.90;;;;;;;12.42;54.81;99637.32;102627;1318;107890;-75